Strona główna
METAR-TAF:

METAR-TAF

Lotnisko :

Port lotniczy Jayapura-Sentani

Jayapura, Indonezja

Szerokość geograficzna: 02-34-37S, Długość geograficzna: 140-30-58E, wysokość: 88 m

Aktualna obserwacja pogody

Raport powstał 23 minut temu, godzina 08:30 UTC
Wiatr 3 kt od zachód
Temperatura 29°C
Wilgotność 74%
Ciśnienie 1008 hPa
Widzialność 10 km lub więcej
Mało chmury na wysokości 1200 ft, Cumulonimbus.
Mało chmury na wysokości 1300 ft
przelotny w pobliże

METAR: WAJJ 040830Z 28003KT 9999 VCSH FEW012CB FEW013 29/24 Q1008 NOSIG

czas: 15:53 (08:53 UTC)


TAF: brakujący

Obserwacja i prognoza pogody dla ponad 4000 lotnisk (raport METAR i TAF).

Dostępne stacje oznaczono żółtymi i czerwonymi punktami na mapie.

Najedź kursorem aby zobaczyć nazwę stacji.

Kliknij aby zobaczyć obserwacje i prognozy pogody.

Aby zmienić mapę: kliknij na zielony przycisk z czarnym krzyżykiem, aby powiększyć; na zielony przycisk z myślnikiem, aby pomniejszyć; na zielone strzałki, aby przejść do map sąsiednich.


METAR-TAF: